Time;durP1;ratioP1;P1;durP2;ratioP2;P2;SDS_P1;SDS_P2;PMS_P1;PMS_P2;Temp;Humidity;BMP_temperature;BMP_pressure;BME280_temperature;BME280_humidity;BME280_pressure;Samples;Min_cycle;Max_cycle;Signal;HPM_P1;HPM_P2
2022/06/19 00:02:06;;;;;;;2.38;1.70;;;;;;;27.98;52.15;98928.13;5078551;28;20063;-57
2022/06/19 00:04:33;;;;;;;2.30;1.70;;;;;;;28.00;51.89;98924.88;5097041;28;20039;-56
2022/06/19 00:06:58;;;;;;;2.45;1.80;;;;;;;28.00;52.12;98919.25;5110091;28;20079;-56
2022/06/19 00:09:25;;;;;;;2.83;2.10;;;;;;;27.99;52.17;98921.25;5104729;28;20083;-56
2022/06/19 00:11:52;;;;;;;2.83;1.90;;;;;;;27.98;51.96;98911.25;5107457;28;20130;-57
2022/06/19 00:14:17;;;;;;;2.42;1.80;;;;;;;27.97;52.04;98916.09;5074775;28;20036;-57
2022/06/19 00:16:42;;;;;;;2.75;1.80;;;;;;;28.00;51.83;98919.25;5096942;28;20112;-57
2022/06/19 00:19:08;;;;;;;2.70;1.92;;;;;;;27.98;52.01;98928.13;5092152;28;20040;-57
2022/06/19 00:21:33;;;;;;;2.50;1.73;;;;;;;27.97;52.07;98904.06;5094246;28;20097;-57
2022/06/19 00:23:59;;;;;;;2.67;1.98;;;;;;;27.97;52.11;98912.47;5109786;28;21404;-57
2022/06/19 00:26:25;;;;;;;3.20;2.00;;;;;;;27.97;52.09;98916.09;5109050;28;20035;-57
2022/06/19 00:28:50;;;;;;;2.63;2.10;;;;;;;28.01;52.19;98906.78;5105642;28;20106;-57
2022/06/19 00:31:16;;;;;;;2.75;1.95;;;;;;;27.98;52.17;98914.84;5108015;28;20047;-57
2022/06/19 00:33:42;;;;;;;2.65;1.90;;;;;;;27.98;52.21;98931.72;5112410;28;20100;-57
2022/06/19 00:36:08;;;;;;;2.97;1.90;;;;;;;28.00;52.20;98908.00;5117397;28;20506;-57
2022/06/19 00:38:33;;;;;;;2.78;1.92;;;;;;;27.98;52.23;98939.38;5108570;28;20490;-57
2022/06/19 00:41:00;;;;;;;2.53;1.90;;;;;;;27.96;52.36;98908.88;5107155;28;20044;-58
2022/06/19 00:43:26;;;;;;;3.00;2.08;;;;;;;27.98;52.37;98908.44;5110330;28;20178;-58
2022/06/19 00:45:53;;;;;;;2.80;1.98;;;;;;;27.97;52.29;98921.72;5103590;28;20043;-57
2022/06/19 00:48:21;;;;;;;2.40;1.90;;;;;;;27.98;52.27;98928.91;5109654;28;20580;-57
2022/06/19 00:50:49;;;;;;;2.38;1.88;;;;;;;27.99;52.32;98915.66;5110945;28;20052;-57
2022/06/19 00:53:22;;;;;;;2.78;2.15;;;;;;;27.98;52.41;98905.63;5110830;28;20064;-57
2022/06/19 00:55:50;;;;;;;2.60;2.10;;;;;;;27.98;52.13;98909.22;5112146;28;20047;-58
2022/06/19 00:58:27;;;;;;;2.58;2.03;;;;;;;27.97;52.09;98926.53;5107344;28;20500;-55
2022/06/19 01:00:57;;;;;;;2.60;2.03;;;;;;;27.95;52.50;98912.94;5104179;28;20100;-56
2022/06/19 01:03:35;;;;;;;2.92;1.88;;;;;;;27.96;52.27;98900.44;5110018;28;20043;-56
2022/06/19 01:06:01;;;;;;;2.60;1.90;;;;;;;27.96;52.27;98897.63;5108147;28;20180;-56
2022/06/19 01:08:26;;;;;;;3.00;2.08;;;;;;;27.95;52.16;98904.50;5087983;28;20408;-58
2022/06/19 01:10:53;;;;;;;2.60;2.10;;;;;;;27.96;52.24;98903.25;5106523;28;20486;-57
2022/06/19 01:13:21;;;;;;;2.28;1.83;;;;;;;27.96;52.03;98903.25;5118004;28;20036;-58
2022/06/19 01:15:48;;;;;;;2.60;1.90;;;;;;;27.94;52.16;98899.31;5112831;28;20057;-58
2022/06/19 01:18:14;;;;;;;2.70;1.90;;;;;;;27.93;52.14;98904.16;5109445;28;20067;-58
2022/06/19 01:20:41;;;;;;;2.70;2.00;;;;;;;27.96;52.26;98894.81;5109705;28;20097;-57
2022/06/19 01:23:10;;;;;;;2.50;2.00;;;;;;;27.96;52.30;98900.44;5116743;28;20040;-58
2022/06/19 01:25:38;;;;;;;2.60;2.00;;;;;;;27.95;52.43;98901.69;5109748;28;20562;-58
2022/06/19 01:30:55;;;;;;;2.72;2.03;;;;;;;27.95;52.32;98912.94;5108184;28;20066;-57
2022/06/19 01:33:25;;;;;;;2.67;2.00;;;;;;;27.95;52.31;98906.50;5108408;28;20047;-58
2022/06/19 01:35:53;;;;;;;2.30;1.85;;;;;;;27.95;52.67;98903.69;5107731;28;20368;-57
2022/06/19 01:38:22;;;;;;;2.80;2.17;;;;;;;27.93;52.45;98909.78;5110293;28;20039;-58
2022/06/19 01:40:51;;;;;;;2.63;2.05;;;;;;;27.92;52.50;98893.31;5090126;28;20469;-57
2022/06/19 01:43:18;;;;;;;2.45;1.85;;;;;;;27.93;52.56;98886.47;5097336;28;20043;-56
2022/06/19 01:45:52;;;;;;;2.47;1.90;;;;;;;27.93;52.40;98889.28;5088717;28;20052;-58
2022/06/19 01:48:19;;;;;;;2.53;2.03;;;;;;;27.93;52.64;98881.66;5093132;28;20053;-58
2022/06/19 01:50:45;;;;;;;2.50;2.05;;;;;;;27.93;52.38;98878.84;5079948;28;20131;-58
2022/06/19 01:53:23;;;;;;;2.92;2.30;;;;;;;27.93;52.30;98897.69;5089950;28;20128;-57
2022/06/19 01:55:49;;;;;;;2.50;2.00;;;;;;;27.90;52.32;98867.66;5106149;28;20048;-57
2022/06/19 01:58:17;;;;;;;2.63;2.00;;;;;;;27.89;52.11;98886.56;5103130;28;20526;-57
2022/06/19 02:00:43;;;;;;;4.07;2.40;;;;;;;27.91;52.11;98884.09;5100237;28;20518;-57
2022/06/19 02:03:23;;;;;;;2.60;2.10;;;;;;;27.90;52.00;98882.50;5107920;28;20050;-57
2022/06/19 02:05:49;;;;;;;2.92;2.30;;;;;;;27.88;52.17;98873.72;5110012;28;20048;-57
2022/06/19 02:08:16;;;;;;;2.65;2.10;;;;;;;27.89;52.12;98880.94;5109033;28;20096;-57
2022/06/19 02:10:45;;;;;;;2.80;2.17;;;;;;;27.90;51.96;98859.25;5110634;28;20043;-57
2022/06/19 02:13:13;;;;;;;2.67;2.13;;;;;;;27.91;51.94;98866.44;5129894;28;20067;-57
2022/06/19 02:15:40;;;;;;;2.60;2.00;;;;;;;27.89;51.72;98847.19;5130005;28;20498;-57
2022/06/19 02:18:09;;;;;;;3.35;2.20;;;;;;;27.90;51.84;98854.41;5125604;27;20510;-56
2022/06/19 02:20:34;;;;;;;3.00;2.30;;;;;;;27.91;51.70;98836.31;5112301;27;20054;-56
2022/06/19 02:23:01;;;;;;;2.70;2.10;;;;;;;27.90;51.70;98817.88;5098170;28;20039;-57
2022/06/19 02:25:26;;;;;;;3.00;2.10;;;;;;;27.90;51.46;98823.47;5101602;27;20043;-56
2022/06/19 02:27:52;;;;;;;2.75;2.25;;;;;;;27.91;51.44;98836.31;5101431;28;20040;-57
2022/06/19 02:30:18;;;;;;;2.70;2.08;;;;;;;27.91;51.42;98838.31;5100698;28;20075;-57
2022/06/19 02:32:47;;;;;;;3.17;2.42;;;;;;;27.89;51.30;98835.97;5096054;28;20053;-57
2022/06/19 02:35:22;;;;;;;2.63;2.22;;;;;;;27.89;51.17;98838.78;5109227;27;21474;-57
2022/06/19 02:37:51;;;;;;;3.00;2.50;;;;;;;27.89;51.06;98830.34;5113964;28;20054;-57
2022/06/19 02:40:30;;;;;;;3.03;2.40;;;;;;;27.89;51.33;98821.91;5116932;27;20506;-56
2022/06/19 02:42:55;;;;;;;2.90;2.22;;;;;;;27.90;50.99;98831.13;5103800;28;20509;-58
2022/06/19 02:45:27;;;;;;;2.70;2.22;;;;;;;27.91;51.18;98833.50;5109202;27;20032;-59
2022/06/19 02:47:55;;;;;;;2.80;2.38;;;;;;;27.91;50.97;98849.56;5109263;27;20047;-59
2022/06/19 02:50:34;;;;;;;2.80;2.30;;;;;;;27.89;51.12;98835.16;5103860;28;20078;-58
2022/06/19 02:53:00;;;;;;;3.00;2.53;;;;;;;27.89;50.90;98835.16;5108113;28;20048;-57
2022/06/19 02:55:26;;;;;;;3.05;2.45;;;;;;;27.90;51.05;98823.47;5108749;28;20113;-57
2022/06/19 02:57:52;;;;;;;3.22;2.40;;;;;;;27.91;50.99;98825.06;5111450;27;20135;-57
2022/06/19 03:00:25;;;;;;;2.72;2.25;;;;;;;27.91;50.89;98833.50;5109615;27;20118;-57
2022/06/19 03:02:54;;;;;;;2.90;2.50;;;;;;;27.90;50.94;98815.06;5104370;27;20083;-57
2022/06/19 03:05:23;;;;;;;3.10;2.50;;;;;;;27.89;50.87;98840.78;5108859;28;20510;-58
2022/06/19 03:07:49;;;;;;;3.15;2.58;;;;;;;27.89;50.80;98824.72;5098496;27;20044;-58
2022/06/19 03:10:15;;;;;;;3.58;2.80;;;;;;;27.89;50.62;98833.16;5106172;27;20100;-57
2022/06/19 03:12:41;;;;;;;3.47;2.90;;;;;;;27.89;50.70;98833.16;5106870;28;20044;-58
2022/06/19 03:15:07;;;;;;;2.78;2.35;;;;;;;27.89;50.57;98816.28;5108377;28;20544;-58
2022/06/19 03:17:33;;;;;;;3.30;2.53;;;;;;;27.91;50.68;98824.28;5110553;27;20044;-58
2022/06/19 03:19:58;;;;;;;3.30;2.65;;;;;;;27.90;50.65;98842.38;5108383;27;20407;-58
2022/06/19 03:22:24;;;;;;;2.95;2.42;;;;;;;27.89;50.62;98807.84;5105452;27;20109;-57
2022/06/19 03:24:49;;;;;;;3.60;2.65;;;;;;;27.90;50.50;98819.88;5110247;28;20093;-58
2022/06/19 03:27:16;;;;;;;2.95;2.53;;;;;;;27.90;50.60;98817.88;5102373;28;20039;-57
2022/06/19 03:29:41;;;;;;;3.13;2.58;;;;;;;27.88;50.60;98806.28;5115831;28;20455;-58
2022/06/19 03:32:10;;;;;;;3.30;2.70;;;;;;;27.89;50.55;98813.47;5104427;27;20495;-58
2022/06/19 03:34:36;;;;;;;3.30;2.90;;;;;;;27.89;50.56;98819.09;5116216;27;20058;-57
2022/06/19 03:37:01;;;;;;;3.92;3.08;;;;;;;27.88;50.59;98816.72;5111074;27;20045;-57
2022/06/19 03:39:27;;;;;;;3.67;2.83;;;;;;;27.87;50.51;98810.31;5100487;28;20046;-56
2022/06/19 03:41:52;;;;;;;3.03;2.58;;;;;;;27.88;50.61;98819.53;5111746;27;20108;-57
2022/06/19 03:44:18;;;;;;;3.42;2.78;;;;;;;27.89;50.47;98827.53;5115092;27;20122;-57
2022/06/19 03:46:43;;;;;;;3.15;2.58;;;;;;;27.88;50.40;98822.34;5103263;28;20038;-57
2022/06/19 03:49:09;;;;;;;3.30;2.88;;;;;;;27.88;50.48;98823.13;5100646;27;20492;-57
2022/06/19 03:51:35;;;;;;;3.75;2.70;;;;;;;27.88;50.34;98828.75;5109390;28;20101;-57
2022/06/19 03:54:00;;;;;;;3.00;2.70;;;;;;;27.87;50.34;98809.53;5107781;28;20035;-57
2022/06/19 03:56:31;;;;;;;3.05;2.50;;;;;;;27.87;50.27;98827.19;5111547;27;20070;-59
2022/06/19 03:58:57;;;;;;;3.15;2.55;;;;;;;27.86;50.34;98825.59;5111722;27;20119;-57
2022/06/19 04:01:30;;;;;;;3.22;2.75;;;;;;;27.86;50.41;98817.16;5102375;28;20414;-57
2022/06/19 04:03:56;;;;;;;3.17;2.67;;;;;;;27.86;50.12;98811.56;5105621;27;20068;-58
2022/06/19 04:06:26;;;;;;;3.53;2.90;;;;;;;27.85;50.11;98806.34;5110538;27;20690;-57
2022/06/19 04:08:52;;;;;;;3.13;2.75;;;;;;;27.86;49.94;98824.78;5108158;27;20044;-57
2022/06/19 04:11:21;;;;;;;3.20;2.70;;;;;;;27.84;50.17;98830.84;5114043;27;20043;-58
2022/06/19 04:13:47;;;;;;;3.40;2.80;;;;;;;27.84;49.98;98818.81;5111503;28;20036;-58
2022/06/19 04:16:21;;;;;;;3.53;2.83;;;;;;;27.84;50.09;98824.44;5109514;27;20100;-58
2022/06/19 04:18:48;;;;;;;3.47;2.83;;;;;;;27.84;50.14;98824.44;5115471;27;20452;-58
2022/06/19 04:21:16;;;;;;;3.60;2.97;;;;;;;27.85;49.92;98824.00;5110191;28;20077;-58
2022/06/19 04:23:42;;;;;;;3.58;2.95;;;;;;;27.87;49.90;98826.41;5101905;28;20063;-57
2022/06/19 04:26:15;;;;;;;3.40;2.80;;;;;;;27.84;49.89;98799.94;5105940;28;20535;-56
2022/06/19 04:28:41;;;;;;;3.08;2.70;;;;;;;27.83;49.79;98820.84;5103665;27;20047;-57
2022/06/19 04:31:07;;;;;;;3.55;2.80;;;;;;;27.85;49.84;98824.00;5111292;27;20028;-56
2022/06/19 04:33:37;;;;;;;3.70;2.72;;;;;;;27.85;49.83;98806.34;5110450;28;20035;-57
2022/06/19 04:36:03;;;;;;;3.67;3.15;;;;;;;27.87;49.93;98824.38;5107509;27;20079;-57
2022/06/19 04:38:28;;;;;;;3.38;2.90;;;;;;;27.86;49.82;98819.16;5099829;28;20081;-58
2022/06/19 04:40:55;;;;;;;3.40;2.88;;;;;;;27.85;49.81;98824.00;5113310;27;20043;-58
2022/06/19 04:43:20;;;;;;;3.00;2.65;;;;;;;27.85;50.08;98823.22;5087118;28;20089;-58
2022/06/19 04:45:46;;;;;;;3.78;2.90;;;;;;;27.84;50.17;98822.41;5115407;27;20040;-58
2022/06/19 04:48:11;;;;;;;3.58;3.17;;;;;;;27.85;50.22;98809.94;5109091;28;20050;-58
2022/06/19 04:50:36;;;;;;;3.20;2.90;;;;;;;27.86;50.11;98811.56;5105405;28;20047;-57
2022/06/19 04:53:02;;;;;;;3.53;2.88;;;;;;;27.87;50.27;98803.91;5103767;28;20048;-56
2022/06/19 04:55:27;;;;;;;3.53;3.20;;;;;;;27.85;50.29;98806.34;5106985;28;20466;-57
2022/06/19 04:57:53;;;;;;;3.55;3.20;;;;;;;27.85;50.34;98795.09;5109314;27;20048;-57
2022/06/19 05:00:20;;;;;;;3.33;2.88;;;;;;;27.85;50.23;98804.31;5106283;27;20064;-57
2022/06/19 05:02:52;;;;;;;3.80;3.13;;;;;;;27.87;50.34;98803.91;5109412;28;20052;-57
2022/06/19 05:05:20;;;;;;;4.10;3.28;;;;;;;27.84;50.30;98802.75;5102226;27;20046;-57
2022/06/19 05:07:45;;;;;;;4.07;3.60;;;;;;;27.85;50.37;98801.50;5103289;28;20126;-57
2022/06/19 05:10:11;;;;;;;3.90;3.25;;;;;;;27.85;50.24;98795.88;5117182;27;20599;-57
2022/06/19 05:12:38;;;;;;;3.65;3.10;;;;;;;27.85;50.40;98801.50;5110542;27;20477;-57
2022/06/19 05:15:04;;;;;;;3.92;3.35;;;;;;;27.87;50.63;98798.28;5089869;28;20089;-57
2022/06/19 05:17:29;;;;;;;3.65;3.20;;;;;;;27.85;50.60;98809.94;5114607;27;20039;-57
2022/06/19 05:19:55;;;;;;;3.75;3.28;;;;;;;27.86;50.60;98808.75;5103768;28;20089;-57
2022/06/19 05:22:20;;;;;;;3.42;3.00;;;;;;;27.85;50.67;98809.94;5107469;27;20415;-57
2022/06/19 05:24:46;;;;;;;3.95;3.50;;;;;;;27.86;50.47;98805.09;5108303;27;20118;-56
2022/06/19 05:27:11;;;;;;;3.95;3.50;;;;;;;27.86;50.52;98797.50;5100531;27;20549;-57
2022/06/19 05:29:38;;;;;;;3.90;3.20;;;;;;;27.85;50.53;98795.88;5110431;28;20042;-57
2022/06/19 05:32:04;;;;;;;3.85;3.45;;;;;;;27.87;50.58;98787.84;5104517;27;20092;-58
2022/06/19 05:34:31;;;;;;;4.03;3.42;;;;;;;27.87;50.83;98784.22;5109457;27;20556;-57
2022/06/19 05:36:57;;;;;;;3.63;3.03;;;;;;;27.84;50.97;98783.06;5106236;27;20487;-56
2022/06/19 05:39:22;;;;;;;3.67;3.28;;;;;;;27.82;50.95;98767.88;5109326;28;20036;-56
2022/06/19 05:41:48;;;;;;;3.85;3.35;;;;;;;27.83;50.96;98775.88;5112308;27;20131;-56
2022/06/19 05:44:14;;;;;;;3.85;3.42;;;;;;;27.82;51.13;98774.28;5110753;27;20393;-56
2022/06/19 05:46:44;;;;;;;3.35;3.05;;;;;;;27.82;51.10;98773.50;5111115;27;20035;-56
2022/06/19 05:49:10;;;;;;;3.92;3.30;;;;;;;27.82;51.17;98768.69;5113842;27;20478;-57
2022/06/19 05:51:35;;;;;;;4.22;3.50;;;;;;;27.81;51.10;98775.53;5105182;28;20114;-56
2022/06/19 05:54:01;;;;;;;4.45;3.60;;;;;;;27.85;50.69;98764.97;5119323;28;20051;-56
2022/06/19 05:56:28;;;;;;;3.90;3.30;;;;;;;27.85;51.35;98767.00;5089520;28;20511;-58
2022/06/19 05:58:54;;;;;;;4.10;3.40;;;;;;;27.83;50.96;98770.25;5107104;28;20051;-56
2022/06/19 06:01:21;;;;;;;4.35;3.70;;;;;;;27.82;50.85;98767.88;5111059;27;20050;-56
2022/06/19 06:03:47;;;;;;;3.80;3.20;;;;;;;27.82;50.92;98763.06;5108707;27;20055;-58
2022/06/19 06:06:16;;;;;;;3.90;3.45;;;;;;;27.81;51.05;98755.84;5113833;28;20039;-58
2022/06/19 06:08:41;;;;;;;4.00;3.60;;;;;;;27.82;50.96;98760.25;5105947;28;20461;-58
2022/06/19 06:11:07;;;;;;;4.45;3.67;;;;;;;27.82;50.90;98768.69;5108373;27;20028;-57
2022/06/19 06:13:32;;;;;;;4.75;3.90;;;;;;;27.82;51.05;98751.03;5109686;27;20519;-57
2022/06/19 06:15:59;;;;;;;4.13;3.65;;;;;;;27.81;51.27;98778.34;5114081;27;20051;-57
2022/06/19 06:18:25;;;;;;;4.65;3.80;;;;;;;27.78;51.29;98756.72;5093246;28;20427;-57
2022/06/19 06:20:59;;;;;;;4.40;3.67;;;;;;;27.77;51.43;98746.72;5113208;27;20496;-57
2022/06/19 06:23:26;;;;;;;4.53;3.65;;;;;;;27.79;51.25;98749.06;5109911;27;20487;-57
2022/06/19 06:26:04;;;;;;;4.45;3.67;;;;;;;27.81;51.15;98739.00;5106170;27;20039;-58
2022/06/19 06:28:30;;;;;;;3.83;3.42;;;;;;;27.80;51.03;98745.84;5108306;27;20040;-58
2022/06/19 06:30:56;;;;;;;3.85;3.45;;;;;;;27.81;50.95;98733.38;5104254;27;20048;-58
2022/06/19 06:33:21;;;;;;;4.22;3.72;;;;;;;27.80;50.91;98737.41;5102378;28;20088;-58
2022/06/19 06:35:47;;;;;;;3.88;3.47;;;;;;;27.83;51.00;98741.34;5108258;27;20084;-57
2022/06/19 06:38:12;;;;;;;4.30;3.60;;;;;;;27.83;51.13;98725.28;5109066;28;20046;-58
2022/06/19 06:40:38;;;;;;;4.20;3.47;;;;;;;27.81;50.13;98744.63;5109162;27;20054;-58
2022/06/19 06:43:03;;;;;;;4.03;3.63;;;;;;;27.83;50.48;98744.97;5107254;27;20137;-58
2022/06/19 06:45:29;;;;;;;3.70;3.30;;;;;;;27.81;50.50;98722.13;5102706;27;20236;-57
2022/06/19 06:47:55;;;;;;;4.00;3.38;;;;;;;27.82;50.39;98740.56;5120372;27;20054;-58
2022/06/19 06:50:20;;;;;;;3.90;3.35;;;;;;;27.83;50.44;98735.75;5120785;27;20043;-57
2022/06/19 06:52:46;;;;;;;3.80;3.40;;;;;;;27.82;50.39;98728.53;5106679;27;20047;-58
2022/06/19 06:55:12;;;;;;;3.40;3.00;;;;;;;27.85;50.26;98739.69;5107027;28;20472;-58
2022/06/19 06:57:38;;;;;;;4.32;3.50;;;;;;;27.87;50.28;98730.84;5106057;27;20048;-58
2022/06/19 07:00:05;;;;;;;4.53;3.50;;;;;;;27.87;50.27;98736.44;5111569;27;20043;-58
2022/06/19 07:02:30;;;;;;;3.65;3.10;;;;;;;27.86;50.20;98710.38;5113983;27;20052;-59
2022/06/19 07:04:56;;;;;;;3.60;2.97;;;;;;;27.88;50.46;98716.34;5106876;28;20043;-57
2022/06/19 07:07:21;;;;;;;4.07;3.50;;;;;;;27.89;50.48;98711.50;5113157;27;20047;-57
2022/06/19 07:09:47;;;;;;;3.72;3.33;;;;;;;27.89;50.44;98717.91;5099181;28;20048;-58
2022/06/19 07:12:12;;;;;;;4.18;3.10;;;;;;;27.90;50.56;98713.88;5116320;27;20134;-58
2022/06/19 07:14:38;;;;;;;4.20;3.58;;;;;;;27.88;50.52;98716.34;5105274;28;20120;-58
2022/06/19 07:17:04;;;;;;;3.75;3.28;;;;;;;27.89;50.63;98715.09;5108428;27;20047;-57
2022/06/19 07:19:30;;;;;;;3.30;3.00;;;;;;;27.92;50.44;98705.78;5108885;28;20161;-57
2022/06/19 07:21:55;;;;;;;4.07;3.25;;;;;;;27.92;50.46;98704.97;5109816;28;20038;-57
2022/06/19 07:24:20;;;;;;;3.67;3.20;;;;;;;27.93;50.58;98700.94;5107818;27;20073;-57
2022/06/19 07:26:46;;;;;;;3.90;3.33;;;;;;;27.93;50.57;98704.56;5115683;27;20046;-58
2022/06/19 07:29:11;;;;;;;3.38;2.83;;;;;;;27.95;50.75;98698.50;5115142;27;20126;-58
2022/06/19 07:31:37;;;;;;;3.78;3.20;;;;;;;27.94;50.71;98703.31;5111923;27;20639;-58
2022/06/19 07:34:04;;;;;;;3.42;3.10;;;;;;;27.95;51.07;98699.28;5107894;27;20043;-58
2022/06/19 07:36:30;;;;;;;3.78;3.03;;;;;;;27.95;51.02;98698.50;5100454;27;20043;-58
2022/06/19 07:38:56;;;;;;;3.80;3.00;;;;;;;27.94;50.96;98702.53;5110751;27;20047;-58
2022/06/19 07:41:21;;;;;;;3.90;3.13;;;;;;;27.96;49.91;98705.69;5107339;27;20036;-57
2022/06/19 07:43:49;;;;;;;3.90;3.28;;;;;;;27.91;50.38;98692.94;5108315;27;20051;-56
2022/06/19 07:46:14;;;;;;;4.00;3.55;;;;;;;27.97;50.63;98687.59;5103588;28;20124;-56
2022/06/19 07:51:26;;;;;;;3.72;3.17;;;;;;;27.95;50.74;98679.59;5106201;27;20047;-57
2022/06/19 07:53:51;;;;;;;4.38;3.28;;;;;;;27.95;50.76;98682.41;5111912;28;20039;-57
2022/06/19 07:56:17;;;;;;;3.85;3.30;;;;;;;27.96;50.58;98678.38;5117398;27;20426;-57
2022/06/19 07:58:43;;;;;;;3.90;3.17;;;;;;;27.95;49.96;98674.00;5112274;27;20083;-57
2022/06/19 08:01:09;;;;;;;3.65;3.10;;;;;;;27.95;50.13;98685.22;5117060;27;20130;-57
2022/06/19 08:03:34;;;;;;;4.38;3.33;;;;;;;27.97;50.17;98682.75;5108756;28;20085;-58
2022/06/19 08:06:00;;;;;;;3.75;3.03;;;;;;;27.97;49.85;98673.53;5115508;28;20052;-56
2022/06/19 08:08:27;;;;;;;3.28;2.67;;;;;;;27.97;49.50;98685.56;5111835;28;20036;-57
2022/06/19 08:10:55;;;;;;;3.83;2.83;;;;;;;27.96;48.70;98672.75;5111158;27;20050;-57
2022/06/19 08:13:24;;;;;;;3.25;2.63;;;;;;;27.98;48.52;98670.28;5110536;28;20123;-57
2022/06/19 08:15:55;;;;;;;3.38;2.75;;;;;;;28.01;47.93;98667.84;5114961;27;20047;-57
2022/06/19 08:18:21;;;;;;;3.50;2.70;;;;;;;28.01;47.50;98671.44;5115920;27;20471;-57
2022/06/19 08:20:47;;;;;;;4.32;3.10;;;;;;;28.02;47.26;98669.41;5111715;27;20039;-57
2022/06/19 08:23:13;;;;;;;3.50;2.65;;;;;;;28.03;47.20;98668.97;5114223;27;20066;-57
2022/06/19 08:25:39;;;;;;;3.50;2.42;;;;;;;28.03;46.83;98671.78;5105244;28;20079;-57
2022/06/19 08:28:05;;;;;;;2.97;2.33;;;;;;;28.02;46.31;98670.19;5101634;28;20036;-56
2022/06/19 08:30:35;;;;;;;2.85;2.15;;;;;;;28.03;46.15;98660.53;5109771;27;20576;-57
2022/06/19 08:33:01;;;;;;;2.88;2.13;;;;;;;28.01;45.87;98662.22;5101966;28;20036;-56
2022/06/19 08:35:30;;;;;;;2.80;2.10;;;;;;;28.03;45.72;98662.56;5106941;28;20043;-57
2022/06/19 08:38:00;;;;;;;3.08;2.20;;;;;;;28.02;45.69;98661.75;5112672;27;20055;-56
2022/06/19 08:40:28;;;;;;;3.03;1.80;;;;;;;28.03;45.43;98645.69;5114103;28;20035;-57
2022/06/19 08:43:16;;;;;;;2.85;2.20;;;;;;;28.04;44.95;98652.88;5103003;27;20083;-56
2022/06/19 08:45:53;;;;;;;3.22;2.20;;;;;;;28.05;45.03;98651.66;5109774;28;20052;-57
2022/06/19 08:48:49;;;;;;;3.08;2.30;;;;;;;28.05;44.47;98646.03;5113162;28;20047;-57
2022/06/19 08:51:33;;;;;;;3.25;2.13;;;;;;;28.07;44.31;98649.16;5100310;27;20047;-57
2022/06/19 08:54:04;;;;;;;3.20;2.20;;;;;;;28.03;44.34;98643.66;5106975;27;20036;-58
2022/06/19 08:57:01;;;;;;;2.92;1.90;;;;;;;28.07;44.18;98640.75;5108398;27;20043;-57
2022/06/19 08:59:40;;;;;;;3.83;2.28;;;;;;;28.07;43.98;98646.34;5099972;28;20075;-57
2022/06/19 09:02:20;;;;;;;2.50;1.73;;;;;;;28.08;43.78;98642.34;5117770;28;20424;-57
2022/06/19 09:08:08;;;;;;;2.53;1.70;;;;;;;28.09;43.41;98635.47;5111407;27;20055;-57
2022/06/19 09:11:00;;;;;;;3.03;2.10;;;;;;;28.09;43.05;98629.84;5100686;28;20054;-57
2022/06/19 09:13:25;;;;;;;3.53;1.88;;;;;;;28.09;43.13;98632.66;5098250;27;20078;-57
2022/06/19 09:15:56;;;;;;;3.55;1.90;;;;;;;28.07;43.04;98624.66;5107791;27;20491;-57
2022/06/19 09:18:35;;;;;;;3.30;1.95;;;;;;;28.08;42.91;98623.44;5112519;28;20043;-57
2022/06/19 09:21:18;;;;;;;3.15;1.98;;;;;;;28.10;42.42;98617.38;5110066;27;20062;-57
2022/06/19 09:24:14;;;;;;;2.92;1.80;;;;;;;28.10;42.36;98623.78;5110739;28;20118;-57
2022/06/19 09:26:56;;;;;;;3.22;1.98;;;;;;;28.11;42.38;98621.75;5105918;27;20330;-57
2022/06/19 09:29:27;;;;;;;;;;;;;;;28.15;42.13;98617.63;5112451;27;20044;-56
2022/06/19 09:31:58;;;;;;;3.10;1.77;;;;;;;28.13;41.97;98619.28;5115796;27;19934;-57
2022/06/19 09:34:46;;;;;;;2.42;1.60;;;;;;;28.14;41.52;98626.47;5096460;28;20048;-57
2022/06/19 09:37:37;;;;;;;3.67;1.63;;;;;;;28.13;41.71;98608.81;5101525;28;20044;-56
2022/06/19 09:40:16;;;;;;;3.00;1.80;;;;;;;28.13;41.46;98620.06;5110011;27;20097;-57
2022/06/19 09:42:47;;;;;;;2.50;1.65;;;;;;;28.14;41.43;98623.66;5096863;28;20040;-57
2022/06/19 09:45:19;;;;;;;2.40;1.55;;;;;;;28.16;41.56;98615.59;5114165;27;20043;-57
2022/06/19 09:47:53;;;;;;;2.23;1.60;;;;;;;28.16;41.28;98621.22;5108496;28;20058;-57
2022/06/19 09:50:30;;;;;;;3.58;1.67;;;;;;;28.18;41.05;98615.94;5093958;28;20044;-57
2022/06/19 09:53:17;;;;;;;3.35;1.95;;;;;;;28.17;40.67;98615.16;5108977;28;20051;-57
2022/06/19 09:55:55;;;;;;;3.08;1.80;;;;;;;28.17;40.97;98615.16;5109732;27;20043;-56
2022/06/19 09:58:29;;;;;;;2.47;1.80;;;;;;;28.17;40.75;98612.34;5108915;27;20503;-57
2022/06/19 10:00:57;;;;;;;2.00;1.58;;;;;;;28.17;40.90;98603.13;5110434;27;20043;-57
2022/06/19 10:03:34;;;;;;;2.85;1.70;;;;;;;28.19;40.72;98612.69;5106522;27;20031;-57
2022/06/19 10:06:10;;;;;;;2.60;1.65;;;;;;;28.21;40.58;98615.03;5111768;27;20124;-56
2022/06/19 10:08:45;;;;;;;3.25;1.60;;;;;;;28.20;40.58;98613.47;5099133;27;20142;-56
2022/06/19 10:11:15;;;;;;;2.60;1.55;;;;;;;28.19;40.48;98597.81;5094537;27;20424;-57
2022/06/19 10:13:54;;;;;;;2.95;1.67;;;;;;;28.19;40.26;98601.44;5088333;28;20048;-57
2022/06/19 10:16:19;;;;;;;3.30;1.48;;;;;;;28.22;40.20;98602.56;5079199;28;20521;-57
2022/06/19 10:18:54;;;;;;;2.65;1.50;;;;;;;28.22;40.30;98594.16;5104202;28;20131;-58
2022/06/19 10:24:41;;;;;;;3.25;1.60;;;;;;;28.24;40.25;98597.28;5089119;28;20096;-57
2022/06/19 10:27:16;;;;;;;2.58;1.60;;;;;;;28.23;39.91;98590.88;5103443;28;20043;-56
2022/06/19 10:30:07;;;;;;;3.00;1.80;;;;;;;28.24;40.17;98594.47;5098980;28;20047;-58
2022/06/19 10:32:35;;;;;;;2.30;1.42;;;;;;;28.22;39.97;98594.94;5108772;28;20062;-57
2022/06/19 10:35:15;;;;;;;2.83;1.65;;;;;;;28.23;39.98;98590.88;5107118;28;20032;-58
2022/06/19 10:37:57;;;;;;;2.70;1.63;;;;;;;28.25;39.86;98582.78;5102860;28;20043;-58
2022/06/19 10:40:34;;;;;;;2.20;1.27;;;;;;;28.25;39.68;98577.16;5082399;28;20138;-58
2022/06/19 10:43:17;;;;;;;2.72;1.40;;;;;;;28.26;39.62;98580.75;5088948;28;20071;-57
2022/06/19 10:45:48;;;;;;;2.45;1.40;;;;;;;28.26;39.65;98577.94;5080525;28;20050;-58
2022/06/19 10:48:55;;;;;;;2.90;1.60;;;;;;;28.27;39.52;98567.47;5078674;28;20424;-58
2022/06/19 10:51:42;;;;;;;2.25;1.48;;;;;;;28.29;39.56;98576.25;5090055;28;20058;-58
2022/06/19 10:54:29;;;;;;;2.40;1.50;;;;;;;28.28;39.35;98572.66;5108250;28;20074;-58
2022/06/19 10:57:12;;;;;;;3.38;1.40;;;;;;;28.28;39.29;98571.88;5102363;28;20043;-56
2022/06/19 10:59:38;;;;;;;2.38;1.40;;;;;;;28.27;39.42;98565.44;5106958;28;20534;-56
2022/06/19 11:05:10;;;;;;;1.90;1.40;;;;;;;28.29;39.30;98570.63;5086842;28;20165;-58
2022/06/19 11:07:35;;;;;;;1.95;1.30;;;;;;;28.29;39.22;98576.25;5092217;28;20123;-58
2022/06/19 11:10:06;;;;;;;2.30;1.40;;;;;;;28.31;39.28;98563.38;5108603;28;20153;-58
2022/06/19 11:12:56;;;;;;;3.60;1.45;;;;;;;28.32;39.63;98564.94;5106421;28;20043;-57
2022/06/19 11:15:24;;;;;;;2.80;1.40;;;;;;;28.32;39.32;98570.56;5113468;28;20066;-57
2022/06/19 11:18:07;;;;;;;2.45;1.50;;;;;;;28.33;39.20;98568.53;5105199;28;20051;-57
2022/06/19 11:20:33;;;;;;;2.20;1.45;;;;;;;28.35;38.94;98571.69;5089608;28;20052;-57
2022/06/19 11:23:22;;;;;;;2.00;1.25;;;;;;;28.33;39.06;98572.13;5087837;28;20419;-56
2022/06/19 11:26:12;;;;;;;1.90;1.30;;;;;;;28.35;39.13;98563.25;5082162;28;20113;-56
2022/06/19 11:28:54;;;;;;;5.20;1.30;;;;;;;28.36;39.09;98571.25;5074955;28;20044;-57
2022/06/19 11:31:19;;;;;;;2.00;1.25;;;;;;;28.35;38.72;98568.88;5104611;28;20124;-57
2022/06/19 11:33:46;;;;;;;2.38;1.40;;;;;;;28.35;39.07;98577.31;5111726;28;20135;-57
2022/06/19 11:36:27;;;;;;;2.25;1.25;;;;;;;28.37;38.78;98567.22;5111541;28;20051;-57
2022/06/19 11:38:54;;;;;;;2.65;1.65;;;;;;;28.39;38.79;98561.91;5103912;28;20035;-57
2022/06/19 11:41:28;;;;;;;2.67;1.38;;;;;;;28.38;38.93;98553.94;5113911;28;20456;-57
2022/06/19 11:43:59;;;;;;;2.40;1.30;;;;;;;28.34;38.84;98550.41;5110665;28;20040;-57
2022/06/19 11:46:26;;;;;;;2.33;1.27;;;;;;;28.38;38.56;98551.13;5111436;28;20079;-57
2022/06/19 11:48:51;;;;;;;1.88;1.27;;;;;;;28.38;38.66;98554.72;5099783;28;20052;-57
2022/06/19 11:51:21;;;;;;;2.80;1.70;;;;;;;28.38;38.65;98551.13;5110411;28;20503;-58
2022/06/19 11:53:55;;;;;;;2.40;1.27;;;;;;;28.38;38.49;98546.28;5097095;28;20535;-58
2022/06/19 11:56:32;;;;;;;2.33;1.23;;;;;;;28.39;38.63;98530.97;5087930;28;20054;-58
2022/06/19 11:59:01;;;;;;;2.47;1.40;;;;;;;28.38;38.57;98534.25;5091746;28;20043;-57
2022/06/19 12:01:53;;;;;;;2.28;1.23;;;;;;;28.41;38.36;98536.13;5091839;28;20043;-57